首页
METAR-TAF:

METAR-TAF

机场 :

怡保国际机场

怡保, 马来西亚

纬度: 04-34-09N, 经度: 101-05-35E, 海拔: 40米

当前天气观测

该预报发布于23分钟前的01:00 UTC
静风
温度 25°C
湿度 89%
气压 1012 hPa
能见度10公里或以上
少量云层高于800英尺
少量云层高于1700英尺, 积雨云.
多云层高于26000英尺

METAR: WMKI 110100Z 00000KT 9999 FEW008 FEW017CB BKN260 25/23 Q1012

时间: 09:23 (01:23 UTC)

预报

该预报发布于2小时和23分钟前的23:00 UTC
预报有效从11日的 00点(UTC)到 12日的 00点(UTC)
风速5节,风向东北
能見度: 9000
少量云层高于2000英尺
短暂存在
从 11日的 07点(UTC)到 11日的 11点(UTC)
能見度: 6000
少量云层高于500英尺
少量云层高于1700英尺, 积雨云.
雷暴, 雨

TAF: WMKI 102300Z 1100/1200 05005KT 9000 FEW020 TEMPO 1107/1111 6000 TSRA FEW005 FEW017CB

超过4000个机场的气象观测和天气预报(METAR&TAF报告)。

可查询的气象台以黄色和红色小点在地图上表示。

将鼠标移到小点上方,可查看气象台名称。

然后点击查看天气观测和预报。

如需切换地图:点击带黑十字的绿色按钮放大地图;点击带横线的绿色按钮缩小地图;或者点击绿色箭头查看邻近地区的地图。


METAR-TAF: